createdAt,value
2019-01-24T00:00:21.552Z,28.03
2019-01-24T00:02:51.234Z,30.57
2019-01-24T00:05:18.016Z,30.63
2019-01-24T00:07:45.137Z,30.43
2019-01-24T00:10:13.543Z,28.53
2019-01-24T00:12:40.348Z,31.63
2019-01-24T00:15:07.086Z,31.07
2019-01-24T00:17:34.328Z,33.20
2019-01-24T00:20:04.831Z,29.00
2019-01-24T00:22:31.574Z,30.90
2019-01-24T00:24:58.379Z,32.73
2019-01-24T00:27:25.229Z,30.30
2019-01-24T00:29:52.154Z,28.93
2019-01-24T00:32:19.463Z,30.47
2019-01-24T00:34:46.218Z,31.97
2019-01-24T00:37:13.136Z,27.07
2019-01-24T00:39:39.928Z,34.37
2019-01-24T00:42:08.287Z,36.40
2019-01-24T00:44:35.126Z,32.20
2019-01-24T00:47:02.023Z,28.70
2019-01-24T00:49:29.360Z,29.20
2019-01-24T00:51:58.009Z,33.87
2019-01-24T00:54:26.860Z,27.00
2019-01-24T00:56:53.700Z,26.93
2019-01-24T00:59:20.483Z,31.30
2019-01-24T01:01:47.326Z,32.27
2019-01-24T01:04:14.052Z,26.33
2019-01-24T01:06:40.955Z,28.20
2019-01-24T01:09:07.760Z,28.30
2019-01-24T01:11:35.129Z,27.77
2019-01-24T01:14:02.155Z,27.10
2019-01-24T01:16:29.035Z,29.70
2019-01-24T01:18:55.790Z,30.80
2019-01-24T01:21:22.634Z,26.83
2019-01-24T01:23:49.401Z,26.90
2019-01-24T01:26:16.190Z,28.97
2019-01-24T01:28:43.022Z,31.77
2019-01-24T01:31:09.944Z,30.80
2019-01-24T01:33:36.747Z,32.17
2019-01-24T01:36:03.699Z,30.13
2019-01-24T01:38:30.666Z,25.67
2019-01-24T01:40:57.435Z,30.77
2019-01-24T01:43:24.247Z,26.90
2019-01-24T04:37:50.994Z,26.55
2019-01-24T04:40:18.626Z,33.13
2019-01-24T04:42:45.514Z,33.53
2019-01-24T04:45:13.532Z,34.10
2019-01-24T04:47:40.529Z,31.37
2019-01-24T04:50:09.442Z,32.77
2019-01-24T04:52:39.246Z,29.73
2019-01-24T04:55:07.635Z,28.73
2019-01-24T04:57:34.398Z,30.97
2019-01-24T05:00:01.429Z,30.17
2019-01-24T05:02:28.271Z,30.00
2019-01-24T05:04:55.022Z,28.00
2019-01-24T05:07:24.820Z,23.80
2019-01-24T05:09:51.902Z,23.70
2019-01-24T05:12:19.038Z,26.03
2019-01-24T05:14:46.280Z,31.20
2019-01-24T05:17:13.195Z,26.87
2019-01-24T05:19:39.962Z,27.00
2019-01-24T05:22:06.931Z,29.80
2019-01-24T05:24:33.749Z,39.80
2019-01-24T05:27:00.597Z,30.50
2019-01-24T05:29:27.417Z,28.63
2019-01-24T05:31:54.383Z,28.37
2019-01-24T05:34:21.161Z,28.70
2019-01-24T05:36:48.066Z,28.70
2019-01-24T05:39:15.019Z,24.87
2019-01-24T05:41:42.212Z,29.10
2019-01-24T05:44:09.029Z,25.90
2019-01-24T05:46:35.801Z,27.20
2019-01-24T05:49:02.541Z,24.98
2019-01-24T05:51:31.119Z,28.50
2019-01-24T05:53:58.109Z,22.03
2019-01-24T05:56:24.966Z,23.97
2019-01-24T05:58:51.691Z,25.07
2019-01-24T06:01:19.275Z,25.33
2019-01-24T06:03:45.994Z,27.43
2019-01-24T06:06:13.035Z,25.03
2019-01-24T06:08:40.150Z,25.03
2019-01-24T06:11:07.020Z,22.10
2019-01-24T06:13:34.543Z,24.55
2019-01-24T06:16:01.313Z,27.07
2019-01-24T06:18:28.297Z,33.50
2019-01-24T06:20:55.184Z,24.57
2019-01-24T06:23:22.148Z,24.10
2019-01-24T06:25:49.016Z,30.53
2019-01-24T06:28:18.250Z,24.93
2019-01-24T06:30:50.186Z,22.87
2019-01-24T06:33:19.853Z,19.87
2019-01-24T06:35:48.908Z,25.07
2019-01-24T06:38:15.320Z,26.00
2019-01-24T06:40:42.067Z,23.63
2019-01-24T06:43:08.855Z,25.80
2019-01-24T06:45:35.774Z,28.73
2019-01-24T06:48:02.579Z,22.80
2019-01-24T06:50:29.518Z,25.50
2019-01-24T06:52:56.283Z,23.90
2019-01-24T06:55:25.508Z,24.83
2019-01-24T06:57:52.458Z,22.80
2019-01-24T07:00:20.784Z,23.23
2019-01-24T07:02:48.482Z,26.57
2019-01-24T07:05:15.233Z,26.30
2019-01-24T07:07:43.567Z,26.57
2019-01-24T07:10:13.099Z,22.57
2019-01-24T07:12:39.973Z,25.97
2019-01-24T07:15:09.009Z,29.50
2019-01-24T07:17:35.993Z,22.97
2019-01-24T07:20:04.779Z,20.73
2019-01-24T07:22:32.901Z,22.50
2019-01-24T07:24:59.934Z,20.20
2019-01-24T07:27:26.801Z,29.65
2019-01-24T07:29:53.598Z,23.17
2019-01-24T07:32:20.636Z,28.98
2019-01-24T07:34:47.608Z,23.80
2019-01-24T07:37:14.506Z,24.83
2019-01-24T07:39:41.570Z,23.40
2019-01-24T07:42:10.808Z,21.27
2019-01-24T07:44:37.580Z,26.17
2019-01-24T07:47:04.364Z,22.03
2019-01-24T07:49:31.177Z,26.20
2019-01-24T07:51:57.968Z,24.83
2019-01-24T07:54:24.824Z,25.80
2019-01-24T07:56:51.931Z,28.73
2019-01-24T07:59:18.745Z,25.67
2019-01-24T08:01:48.677Z,30.07
2019-01-24T08:04:15.584Z,34.00
2019-01-24T08:06:42.560Z,22.47
2019-01-24T08:09:09.404Z,26.30
2019-01-24T08:11:36.639Z,31.30
2019-01-24T08:14:03.757Z,21.33
2019-01-24T08:16:30.559Z,23.87
2019-01-24T08:18:57.571Z,22.97
2019-01-24T08:21:24.651Z,24.43
2019-01-24T08:23:51.493Z,24.77
2019-01-24T08:26:20.607Z,23.47
2019-01-24T08:28:47.472Z,27.10
2019-01-24T08:31:14.521Z,24.57
2019-01-24T08:33:41.629Z,22.43
2019-01-24T08:36:08.391Z,18.87
2019-01-24T08:38:37.389Z,24.40
2019-01-24T08:41:04.251Z,22.63
2019-01-24T08:43:31.183Z,22.77
2019-01-24T08:45:58.403Z,21.60
2019-01-24T08:48:25.680Z,22.20
2019-01-24T08:50:52.507Z,23.33
2019-01-24T08:53:19.842Z,21.67
2019-01-24T08:55:46.811Z,23.33
2019-01-24T08:58:15.931Z,27.00
2019-01-24T09:00:42.769Z,22.80
2019-01-24T09:03:11.426Z,22.20
2019-01-24T09:05:38.461Z,20.73
2019-01-24T09:08:05.510Z,26.17
2019-01-24T09:10:34.172Z,20.93
2019-01-24T09:13:01.380Z,18.93
2019-01-24T09:15:31.440Z,26.90
2019-01-24T09:17:58.474Z,23.50
2019-01-24T09:20:25.200Z,23.77
2019-01-24T09:22:55.387Z,23.13
2019-01-24T09:25:20.781Z,23.70
2019-01-24T09:27:47.729Z,22.13
2019-01-24T09:30:17.786Z,25.17
2019-01-24T09:32:44.591Z,22.03
2019-01-24T09:35:11.425Z,22.60
2019-01-24T09:37:38.210Z,23.20
2019-01-24T09:40:06.735Z,40.67
2019-01-24T09:42:36.134Z,19.47
2019-01-24T09:45:05.478Z,33.87
2019-01-24T09:47:32.493Z,24.20
2019-01-24T09:49:59.467Z,21.37
2019-01-24T09:52:26.462Z,22.87
2019-01-24T09:54:53.583Z,21.67
2019-01-24T09:57:24.006Z,23.70
2019-01-24T09:59:50.977Z,18.53
2019-01-24T10:02:20.666Z,23.37
2019-01-24T10:04:47.596Z,21.93
2019-01-24T10:07:14.379Z,23.47
2019-01-24T10:09:41.513Z,22.70
2019-01-24T10:12:08.485Z,21.23
2019-01-24T10:14:35.439Z,20.20
2019-01-24T10:17:02.847Z,19.90
2019-01-24T10:19:29.784Z,22.13
2019-01-24T10:21:56.818Z,21.10
2019-01-24T10:24:23.803Z,21.50
2019-01-24T10:26:51.161Z,21.97
2019-01-24T10:29:19.000Z,23.20
2019-01-24T10:31:46.520Z,27.40
2019-01-24T10:34:14.223Z,19.90
2019-01-24T10:36:43.158Z,24.40
2019-01-24T10:39:09.768Z,21.63
2019-01-24T10:41:39.018Z,19.50
2019-01-24T10:44:05.896Z,19.23
2019-01-24T10:46:32.961Z,23.00
2019-01-24T10:48:59.936Z,21.63
2019-01-24T10:51:26.861Z,20.10
2019-01-24T10:53:53.972Z,20.30
2019-01-24T10:56:24.127Z,23.03
2019-01-24T10:58:51.172Z,23.10
2019-01-24T11:01:17.944Z,21.17
2019-01-24T11:03:44.893Z,23.33
2019-01-24T11:06:12.338Z,30.77
2019-01-24T11:08:40.611Z,15.60
2019-01-24T11:11:09.152Z,21.90
2019-01-24T11:13:36.326Z,30.10
2019-01-24T11:16:05.034Z,22.33
2019-01-24T11:18:31.926Z,26.63
2019-01-24T11:20:58.922Z,23.30
2019-01-24T11:23:25.727Z,21.37
2019-01-24T11:25:52.714Z,21.43
2019-01-24T11:28:19.696Z,21.90
2019-01-24T11:30:46.598Z,23.87
2019-01-24T11:33:14.684Z,18.53
2019-01-24T11:35:42.066Z,23.47
2019-01-24T11:38:09.351Z,24.27
2019-01-24T11:40:36.759Z,22.40
2019-01-24T11:43:04.676Z,20.43
2019-01-24T11:45:34.207Z,20.57
2019-01-24T11:48:01.216Z,18.93
2019-01-24T11:50:28.400Z,21.97
2019-01-24T11:52:55.557Z,18.33
2019-01-24T11:55:22.680Z,24.47
2019-01-24T11:57:51.024Z,23.37
2019-01-24T12:00:20.201Z,19.57
2019-01-24T12:02:47.314Z,17.20
2019-01-24T12:05:14.238Z,20.13
2019-01-24T12:07:42.744Z,20.57
2019-01-24T12:10:12.719Z,18.93
2019-01-24T12:12:40.376Z,20.63
2019-01-24T12:15:09.351Z,19.07
2019-01-24T12:17:38.902Z,19.90
2019-01-24T12:20:09.438Z,20.30
2019-01-24T12:22:37.746Z,16.43
2019-01-24T12:25:07.814Z,16.93
2019-01-24T12:27:35.197Z,22.67
2019-01-24T12:30:02.382Z,17.60
2019-01-24T12:32:30.031Z,15.77
2019-01-24T12:34:57.438Z,15.63
2019-01-24T12:37:24.510Z,16.80
2019-01-24T12:39:53.533Z,15.23
2019-01-24T12:42:20.501Z,18.10
2019-01-24T12:44:49.617Z,17.20
2019-01-24T12:47:20.299Z,16.90
2019-01-24T12:49:47.716Z,19.10
2019-01-24T12:52:14.971Z,17.40
2019-01-24T12:54:42.168Z,22.67
2019-01-24T12:57:10.050Z,16.80
2019-01-24T12:59:39.544Z,14.70
2019-01-24T13:02:09.173Z,15.90
2019-01-24T13:04:37.348Z,20.23
2019-01-24T13:07:04.729Z,17.40
2019-01-24T13:09:31.895Z,15.33
2019-01-24T13:11:58.706Z,16.13
2019-01-24T13:14:28.725Z,19.97
2019-01-24T13:16:55.548Z,17.10
2019-01-24T13:19:26.987Z,15.87
2019-01-24T13:21:57.547Z,16.80
2019-01-24T13:24:24.908Z,17.47
2019-01-24T13:26:52.870Z,19.10
2019-01-24T13:29:20.363Z,18.83
2019-01-24T13:31:52.471Z,17.87
2019-01-24T13:34:19.274Z,21.77
2019-01-24T13:36:46.039Z,18.40
2019-01-24T13:39:13.308Z,19.10
2019-01-24T13:41:42.602Z,20.87
2019-01-24T13:44:09.571Z,21.90
2019-01-24T13:46:36.397Z,22.60
2019-01-24T13:49:10.465Z,18.93
2019-01-24T13:51:37.214Z,20.83
2019-01-24T13:54:04.240Z,18.60
2019-01-24T13:56:31.274Z,19.60
2019-01-24T13:58:59.974Z,18.77
2019-01-24T14:01:26.745Z,21.13
2019-01-24T14:03:58.495Z,18.77
2019-01-24T14:06:25.367Z,19.93
2019-01-24T14:08:52.179Z,16.60
2019-01-24T14:11:19.327Z,16.50
2019-01-24T14:13:46.068Z,19.70
2019-01-24T14:16:13.221Z,21.37
2019-01-24T14:18:40.563Z,21.00
2019-01-24T14:21:07.336Z,19.87
2019-01-24T14:23:36.653Z,17.17
2019-01-24T14:26:03.686Z,15.90
2019-01-24T14:28:33.235Z,15.90
2019-01-24T14:31:01.917Z,16.00
2019-01-24T14:33:28.777Z,18.57
2019-01-24T14:35:55.860Z,21.30
2019-01-24T14:38:23.593Z,18.63
2019-01-24T14:40:50.560Z,18.37
2019-01-24T14:43:17.555Z,18.73
2019-01-24T14:45:44.743Z,20.27
2019-01-24T14:48:11.532Z,21.20
2019-01-24T14:50:38.593Z,16.93
2019-01-24T14:53:05.620Z,18.80
2019-01-24T14:55:32.711Z,19.20
2019-01-24T14:57:59.657Z,17.40
2019-01-24T15:00:28.930Z,23.37
2019-01-24T15:02:58.325Z,24.87
2019-01-24T15:05:25.220Z,19.50
2019-01-24T15:07:52.008Z,20.00
2019-01-24T15:10:19.598Z,23.97
2019-01-24T15:12:46.635Z,23.20
2019-01-24T15:15:13.542Z,21.40
2019-01-24T15:17:40.563Z,23.00
2019-01-24T15:20:08.947Z,21.83
2019-01-24T15:22:38.822Z,23.20
2019-01-24T15:25:07.579Z,22.90
2019-01-24T15:27:37.327Z,23.63
2019-01-24T15:30:06.277Z,25.47
2019-01-24T15:32:33.109Z,24.80
2019-01-24T15:35:00.177Z,25.40
2019-01-24T15:37:27.028Z,24.20
2019-01-24T15:39:54.499Z,24.70
2019-01-24T15:42:21.678Z,22.87
2019-01-24T15:44:48.612Z,22.90
2019-01-24T15:47:15.564Z,23.40
2019-01-24T15:49:42.389Z,25.67
2019-01-24T15:52:09.237Z,27.87
2019-01-24T15:54:36.647Z,26.17
2019-01-24T15:57:03.902Z,21.47
2019-01-24T15:59:32.772Z,26.80
2019-01-24T16:01:59.716Z,24.23
2019-01-24T16:04:26.628Z,27.47
2019-01-24T16:06:53.786Z,24.03
2019-01-24T16:09:20.629Z,23.77
2019-01-24T16:11:47.738Z,25.47
2019-01-24T16:14:14.681Z,23.07
2019-01-24T16:16:41.484Z,25.00
2019-01-24T16:19:09.668Z,22.33
2019-01-24T16:21:36.770Z,22.90
2019-01-24T16:24:03.707Z,24.27
2019-01-24T16:26:30.661Z,21.07
2019-01-24T16:28:57.481Z,22.27
2019-01-24T16:31:24.571Z,24.20
2019-01-24T16:33:52.320Z,27.90
2019-01-24T16:36:19.258Z,26.00
2019-01-24T16:38:48.304Z,19.90
2019-01-24T16:41:15.212Z,24.93
2019-01-24T16:43:42.056Z,24.73
2019-01-24T16:46:09.004Z,22.23
2019-01-24T16:48:36.028Z,21.63
2019-01-24T16:51:02.972Z,22.80
2019-01-24T16:53:29.929Z,22.93
2019-01-24T16:55:57.101Z,28.67
2019-01-24T16:58:24.254Z,24.57
2019-01-24T17:00:58.679Z,25.30
2019-01-24T17:03:25.436Z,25.07
2019-01-24T17:05:52.986Z,22.17
2019-01-24T17:08:20.099Z,23.20
2019-01-24T17:10:47.562Z,26.50
2019-01-24T17:13:16.225Z,23.57
2019-01-24T17:15:43.098Z,27.00
2019-01-24T17:18:09.998Z,24.83
2019-01-24T17:20:36.958Z,23.93
2019-01-24T17:23:04.723Z,25.10
2019-01-24T17:25:31.540Z,25.70
2019-01-24T17:27:58.329Z,23.30
2019-01-24T17:30:26.596Z,24.50
2019-01-24T17:32:54.695Z,26.33
2019-01-24T17:35:21.548Z,24.77
2019-01-24T17:37:48.584Z,25.53
2019-01-24T17:40:18.826Z,26.47
2019-01-24T17:42:45.599Z,23.50
2019-01-24T17:45:13.127Z,23.37
2019-01-24T17:47:39.914Z,24.10
2019-01-24T17:50:08.226Z,24.37
2019-01-24T17:52:34.996Z,25.43
2019-01-24T17:55:01.870Z,25.17
2019-01-24T17:57:32.400Z,26.23
2019-01-24T18:00:02.227Z,26.83
2019-01-24T18:02:30.345Z,26.60
2019-01-24T18:04:57.130Z,24.23
2019-01-24T18:07:23.942Z,22.47
2019-01-24T18:09:50.862Z,27.70
2019-01-24T18:12:18.202Z,25.83
2019-01-24T18:14:47.991Z,27.97
2019-01-24T18:17:16.382Z,28.40
2019-01-24T18:19:43.286Z,32.90
2019-01-24T18:22:10.364Z,25.93
2019-01-24T18:24:37.125Z,25.93
2019-01-24T18:27:07.091Z,31.50
2019-01-24T18:29:37.128Z,31.27
2019-01-24T18:32:03.918Z,28.30
2019-01-24T18:34:30.634Z,29.17
2019-01-24T18:37:00.009Z,30.93
2019-01-24T18:39:28.038Z,28.70
2019-01-24T18:41:55.279Z,29.70
2019-01-24T18:44:22.293Z,31.90
2019-01-24T18:46:49.063Z,31.60
2019-01-24T18:49:16.056Z,30.20
2019-01-24T18:51:43.047Z,32.50
2019-01-24T18:54:12.721Z,30.27
2019-01-24T18:56:39.906Z,26.27
2019-01-24T18:59:06.781Z,32.10
2019-01-24T19:01:33.844Z,31.03
2019-01-24T19:04:01.167Z,29.97
2019-01-24T19:06:29.074Z,35.43
2019-01-24T19:08:56.261Z,26.70
2019-01-24T19:11:23.098Z,26.77
2019-01-24T19:13:49.868Z,33.43
2019-01-24T19:16:18.598Z,30.47
2019-01-24T19:18:45.540Z,32.87
2019-01-24T19:21:12.570Z,32.83
2019-01-24T19:23:39.533Z,39.67
2019-01-24T19:26:06.294Z,31.23
2019-01-24T19:28:33.151Z,32.63
2019-01-24T19:31:00.151Z,26.87
2019-01-24T19:33:27.196Z,31.87
2019-01-24T19:36:00.251Z,32.63
2019-01-24T19:38:23.065Z,30.07
2019-01-24T19:40:50.317Z,32.30
2019-01-24T19:43:17.394Z,31.70
2019-01-24T19:45:44.229Z,45.27
2019-01-24T19:48:11.215Z,33.20
2019-01-24T19:50:37.984Z,36.60
2019-01-24T19:53:05.287Z,36.43
2019-01-24T19:55:34.470Z,34.23
2019-01-24T19:58:01.745Z,33.60
2019-01-24T20:00:30.637Z,37.33
2019-01-24T20:02:57.854Z,36.20
2019-01-24T20:05:24.731Z,37.83
2019-01-24T20:07:55.703Z,33.93
2019-01-24T20:10:27.971Z,32.70
2019-01-24T20:13:01.919Z,31.70
2019-01-24T20:15:29.180Z,30.87
2019-01-24T20:17:55.958Z,41.33
2019-01-24T20:20:23.010Z,35.53
2019-01-24T20:22:50.298Z,34.23
2019-01-24T20:25:18.555Z,36.20
2019-01-24T20:27:45.584Z,37.87
2019-01-24T20:30:15.591Z,32.43
2019-01-24T20:32:42.447Z,38.73
2019-01-24T20:35:16.409Z,39.40
2019-01-24T20:37:43.983Z,32.47
2019-01-24T20:40:11.623Z,33.37
2019-01-24T20:42:40.044Z,32.60
2019-01-24T20:45:10.061Z,40.03
2019-01-24T20:47:37.281Z,36.73
2019-01-24T20:50:04.759Z,38.93
2019-01-24T20:52:32.012Z,35.30
2019-01-24T20:54:59.121Z,34.70
2019-01-24T20:57:30.216Z,34.17
2019-01-24T20:59:57.080Z,35.40
2019-01-24T21:02:24.352Z,38.43
2019-01-24T21:04:51.353Z,35.63
2019-01-24T21:07:18.335Z,37.57
2019-01-24T21:09:46.187Z,37.67
2019-01-24T21:12:13.023Z,32.80
2019-01-24T21:14:39.902Z,34.80
2019-01-24T21:17:06.685Z,36.20
2019-01-24T21:19:33.753Z,38.80
2019-01-24T21:22:03.280Z,37.03
2019-01-24T21:24:30.047Z,31.20
2019-01-24T21:26:56.990Z,35.97
2019-01-24T21:29:23.769Z,36.63
2019-01-24T21:31:50.484Z,34.33
2019-01-24T21:34:17.413Z,35.67
2019-01-24T21:36:44.315Z,35.20
2019-01-24T21:39:11.035Z,36.97
2019-01-24T21:41:39.528Z,32.30
2019-01-24T21:44:06.307Z,37.73
2019-01-24T21:46:33.100Z,34.03
2019-01-24T21:49:03.513Z,31.90
2019-01-24T21:51:30.832Z,35.80
2019-01-24T21:53:57.730Z,34.83
2019-01-24T21:56:24.580Z,33.67
2019-01-24T21:58:51.454Z,33.30
2019-01-24T22:01:18.216Z,31.03
2019-01-24T22:03:45.236Z,36.67
2019-01-24T22:06:12.345Z,36.07
2019-01-24T22:08:39.134Z,44.30
2019-01-24T22:11:05.924Z,42.17
2019-01-24T22:13:32.974Z,51.93
2019-01-24T22:16:00.381Z,39.60
2019-01-24T22:18:27.437Z,34.03
2019-01-24T22:20:55.754Z,36.80
2019-01-24T22:23:22.701Z,42.90
2019-01-24T22:25:49.456Z,35.40
2019-01-24T22:28:16.534Z,39.97
2019-01-24T22:30:47.387Z,37.70
2019-01-24T22:33:14.622Z,37.00
2019-01-24T22:35:43.701Z,35.93
2019-01-24T22:38:10.500Z,38.03
2019-01-24T22:40:37.247Z,39.33
2019-01-24T22:43:04.692Z,41.03
2019-01-24T22:45:31.444Z,33.57
2019-01-24T22:48:02.016Z,39.30
2019-01-24T22:50:28.805Z,32.30
2019-01-24T22:52:55.530Z,37.20
2019-01-24T22:55:22.275Z,33.23
2019-01-24T22:57:49.122Z,34.10
2019-01-24T23:01:04.006Z,33.00
2019-01-24T23:03:37.917Z,32.67
2019-01-24T23:06:04.692Z,32.93
2019-01-24T23:08:33.906Z,29.80
2019-01-24T23:11:00.651Z,30.83
2019-01-24T23:13:27.798Z,34.77
2019-01-24T23:15:54.582Z,31.77
2019-01-24T23:18:21.354Z,33.40
2019-01-24T23:20:48.183Z,33.33
2019-01-24T23:23:14.949Z,34.30
2019-01-24T23:25:41.799Z,34.27
2019-01-24T23:28:10.592Z,30.13
2019-01-24T23:30:37.346Z,36.60
2019-01-24T23:33:04.130Z,35.37
2019-01-24T23:35:30.966Z,32.73
2019-01-24T23:37:58.822Z,32.63
2019-01-24T23:40:25.575Z,36.57
2019-01-24T23:42:54.628Z,34.27
2019-01-24T23:45:21.522Z,32.93
2019-01-24T23:47:48.431Z,37.10
2019-01-24T23:50:15.358Z,38.23
2019-01-24T23:52:42.099Z,35.03
2019-01-24T23:55:08.988Z,33.57
2019-01-24T23:57:35.864Z,34.70
